createdAt,value
2022-09-10T00:02:12.488Z,12.00
2022-09-10T00:04:39.415Z,11.90
2022-09-10T00:07:06.503Z,11.90
2022-09-10T00:09:33.448Z,11.80
2022-09-10T00:12:00.563Z,11.80
2022-09-10T00:14:27.653Z,11.80
2022-09-10T00:16:54.967Z,11.80
2022-09-10T00:19:22.278Z,11.80
2022-09-10T00:21:50.757Z,11.80
2022-09-10T00:24:17.759Z,11.80
2022-09-10T00:26:45.759Z,11.70
2022-09-10T00:29:15.920Z,11.70
2022-09-10T00:31:43.558Z,11.60
2022-09-10T00:34:11.907Z,11.50
2022-09-10T00:36:44.023Z,11.50
2022-09-10T00:39:17.088Z,11.50
2022-09-10T00:41:46.320Z,11.40
2022-09-10T00:44:41.200Z,11.40
2022-09-10T00:47:23.612Z,11.40
2022-09-10T00:50:00.463Z,11.40
2022-09-10T00:52:28.667Z,11.40
2022-09-10T00:54:55.970Z,11.40
2022-09-10T00:57:24.306Z,11.40
2022-09-10T00:59:59.394Z,11.40
2022-09-10T01:02:27.060Z,11.40
2022-09-10T01:04:56.726Z,11.40
2022-09-10T01:07:25.719Z,11.30
2022-09-10T01:09:53.041Z,11.30
2022-09-10T01:12:49.331Z,11.40
2022-09-10T01:15:38.263Z,11.40
2022-09-10T01:18:35.916Z,11.50
2022-09-10T01:21:49.315Z,11.50
2022-09-10T01:24:48.479Z,11.50
2022-09-10T01:27:27.533Z,11.50
2022-09-10T01:30:03.421Z,11.40
2022-09-10T01:32:54.344Z,11.40
2022-09-10T01:35:32.330Z,11.40
2022-09-10T01:38:05.462Z,11.40
2022-09-10T01:40:33.753Z,11.40
2022-09-10T01:43:09.777Z,11.30
2022-09-10T01:46:03.301Z,11.30
2022-09-10T01:49:00.731Z,11.30
2022-09-10T01:51:57.966Z,11.20
2022-09-10T01:54:28.551Z,11.30
2022-09-10T01:57:33.467Z,11.20
2022-09-10T02:00:10.894Z,11.20
2022-09-10T02:02:37.756Z,11.10
2022-09-10T02:05:06.808Z,11.10
2022-09-10T02:07:36.242Z,11.10
2022-09-10T02:10:08.784Z,11.10
2022-09-10T02:12:36.904Z,11.20
2022-09-10T02:15:08.033Z,11.10
2022-09-10T02:17:37.842Z,11.20
2022-09-10T02:20:08.890Z,11.20
2022-09-10T02:22:36.833Z,11.30
2022-09-10T02:25:04.685Z,11.30
2022-09-10T02:27:31.667Z,11.40
2022-09-10T02:29:58.759Z,11.30
2022-09-10T02:32:25.720Z,11.30
2022-09-10T02:34:52.627Z,11.30
2022-09-10T02:37:20.456Z,11.30
2022-09-10T02:39:47.727Z,11.30
2022-09-10T02:42:17.189Z,11.20
2022-09-10T02:44:45.271Z,11.20
2022-09-10T02:47:12.834Z,11.20
2022-09-10T02:49:40.307Z,11.20
2022-09-10T02:52:07.412Z,11.10
2022-09-10T02:54:34.524Z,11.10
2022-09-10T02:57:01.365Z,11.10
2022-09-10T02:59:29.145Z,11.00
2022-09-10T03:01:56.407Z,11.10
2022-09-10T03:04:23.430Z,11.10
2022-09-10T03:06:52.093Z,11.00
2022-09-10T03:09:19.096Z,11.00
2022-09-10T03:11:46.899Z,11.00
2022-09-10T03:14:20.249Z,11.00
2022-09-10T03:16:47.813Z,11.00
2022-09-10T03:19:15.591Z,11.00
2022-09-10T03:21:42.915Z,11.00
2022-09-10T03:24:13.393Z,11.10
2022-09-10T03:26:43.555Z,11.00
2022-09-10T03:29:10.763Z,11.00
2022-09-10T03:31:37.842Z,11.00
2022-09-10T03:34:04.767Z,11.00
2022-09-10T03:36:31.762Z,11.00
2022-09-10T03:38:59.301Z,11.00
2022-09-10T03:41:28.716Z,10.90
2022-09-10T03:43:55.958Z,10.90
2022-09-10T03:46:22.998Z,10.90
2022-09-10T03:48:53.353Z,10.90
2022-09-10T03:51:23.278Z,10.80
2022-09-10T03:53:50.153Z,10.80
2022-09-10T03:56:20.122Z,10.80
2022-09-10T03:58:49.278Z,10.80
2022-09-10T04:01:17.520Z,10.80
2022-09-10T04:03:44.698Z,10.80
2022-09-10T04:06:16.331Z,10.80
2022-09-10T04:08:46.297Z,10.80
2022-09-10T04:11:14.207Z,10.80
2022-09-10T04:13:41.098Z,10.80
2022-09-10T04:16:08.016Z,10.80
2022-09-10T04:18:35.446Z,10.80
2022-09-10T04:21:02.469Z,10.80
2022-09-10T04:23:29.826Z,10.80
2022-09-10T04:25:57.191Z,10.70
2022-09-10T04:28:24.234Z,10.80
2022-09-10T04:30:51.495Z,10.80
2022-09-10T04:33:18.519Z,10.80
2022-09-10T04:35:45.707Z,10.70
2022-09-10T04:38:12.619Z,10.80
2022-09-10T04:40:39.959Z,10.80
2022-09-10T04:43:06.864Z,10.80
2022-09-10T04:45:34.778Z,10.80
2022-09-10T04:48:06.710Z,10.80
2022-09-10T04:50:34.131Z,10.80
2022-09-10T04:53:01.354Z,10.70
2022-09-10T04:55:30.419Z,10.70
2022-09-10T04:57:57.308Z,10.70
2022-09-10T05:00:25.138Z,10.70
2022-09-10T05:02:52.717Z,10.60
2022-09-10T05:05:19.603Z,10.70
2022-09-10T05:07:46.505Z,10.70
2022-09-10T05:10:13.539Z,10.60
2022-09-10T05:12:40.382Z,10.70
2022-09-10T05:15:07.942Z,10.70
2022-09-10T05:17:34.871Z,10.70
2022-09-10T05:20:03.985Z,10.70
2022-09-10T05:22:37.216Z,10.70
2022-09-10T05:25:07.547Z,10.70
2022-09-10T05:27:34.428Z,10.80
2022-09-10T05:30:02.211Z,10.80
2022-09-10T05:32:29.565Z,10.80
2022-09-10T05:34:56.434Z,10.80
2022-09-10T05:37:23.358Z,10.80
2022-09-10T05:39:50.431Z,10.80
2022-09-10T05:42:17.512Z,10.80
2022-09-10T05:44:44.387Z,10.80
2022-09-10T05:47:11.260Z,10.90
2022-09-10T05:49:38.186Z,10.90
2022-09-10T05:52:05.264Z,10.80
2022-09-10T05:54:32.117Z,10.80
2022-09-10T05:56:59.076Z,10.80
2022-09-10T05:59:25.939Z,10.80
2022-09-10T06:01:53.010Z,10.80
2022-09-10T06:04:20.083Z,10.80
2022-09-10T06:06:47.910Z,10.80
2022-09-10T06:09:15.120Z,10.80
2022-09-10T06:11:42.072Z,10.80
2022-09-10T06:14:09.125Z,10.80
2022-09-10T06:16:36.074Z,10.90
2022-09-10T06:19:03.089Z,11.00
2022-09-10T06:21:29.977Z,11.10
2022-09-10T06:23:57.056Z,11.10
2022-09-10T06:26:24.019Z,11.20
2022-09-10T06:28:50.936Z,11.30
2022-09-10T06:31:19.717Z,11.40
2022-09-10T06:33:49.053Z,11.40
2022-09-10T06:36:16.312Z,11.50
2022-09-10T06:38:45.075Z,11.60
2022-09-10T06:41:13.731Z,11.80
2022-09-10T06:43:41.787Z,11.90
2022-09-10T06:47:09.518Z,11.90
2022-09-10T06:49:06.176Z,11.90
2022-09-10T06:51:36.082Z,11.80
2022-09-10T06:54:03.432Z,11.80
2022-09-10T06:56:30.452Z,11.80
2022-09-10T06:59:01.513Z,11.80
2022-09-10T07:01:29.391Z,11.80
2022-09-10T07:03:58.291Z,11.90
2022-09-10T07:06:26.903Z,11.90
2022-09-10T07:08:56.580Z,11.90
2022-09-10T07:11:25.986Z,12.00
2022-09-10T07:13:53.924Z,12.00
2022-09-10T07:16:26.583Z,12.00
2022-09-10T07:18:56.340Z,12.00
2022-09-10T07:21:25.362Z,12.00
2022-09-10T07:23:56.550Z,12.10
2022-09-10T07:26:23.575Z,12.30
2022-09-10T07:28:50.607Z,12.30
2022-09-10T07:31:31.686Z,12.40
2022-09-10T07:33:58.852Z,12.50
2022-09-10T07:36:25.888Z,12.50
2022-09-10T07:38:55.240Z,12.60
2022-09-10T07:41:22.286Z,12.70
2022-09-10T07:43:53.698Z,12.80
2022-09-10T07:46:22.028Z,12.90
2022-09-10T07:48:53.719Z,12.90
2022-09-10T07:51:21.626Z,13.10
2022-09-10T07:53:56.383Z,13.40
2022-09-10T07:56:23.911Z,14.00
2022-09-10T07:58:51.838Z,14.50
2022-09-10T08:01:21.991Z,14.80
2022-09-10T08:03:49.440Z,14.90
2022-09-10T08:06:16.883Z,15.10
2022-09-10T08:08:43.966Z,15.30
2022-09-10T08:11:13.127Z,15.30
2022-09-10T08:13:41.841Z,15.20
2022-09-10T08:16:10.839Z,15.20
2022-09-10T08:18:37.903Z,15.10
2022-09-10T08:21:08.595Z,14.90
2022-09-10T08:23:36.683Z,15.00
2022-09-10T08:26:06.472Z,15.00
2022-09-10T08:28:34.016Z,15.10
2022-09-10T08:31:08.334Z,15.20
2022-09-10T08:33:36.539Z,15.40
2022-09-10T08:36:04.844Z,15.60
2022-09-10T08:38:34.619Z,15.60
2022-09-10T08:41:09.663Z,15.60
2022-09-10T08:43:43.913Z,15.70
2022-09-10T08:46:21.155Z,15.40
2022-09-10T08:48:55.157Z,15.30
2022-09-10T08:51:30.065Z,15.00
2022-09-10T08:54:17.632Z,15.20
2022-09-10T08:56:47.370Z,15.80
2022-09-10T08:59:33.742Z,16.40
2022-09-10T09:02:11.305Z,16.80
2022-09-10T09:04:50.757Z,17.20
2022-09-10T09:07:19.971Z,17.20
2022-09-10T09:09:51.545Z,17.00
2022-09-10T09:12:34.526Z,17.20
2022-09-10T09:15:21.163Z,17.10
2022-09-10T09:17:54.934Z,17.00
2022-09-10T09:20:24.705Z,16.90
2022-09-10T09:23:16.788Z,16.80
2022-09-10T09:26:16.267Z,17.10
2022-09-10T09:29:24.238Z,17.80
2022-09-10T09:31:57.784Z,18.10
2022-09-10T09:34:39.664Z,18.00
2022-09-10T09:37:25.027Z,18.00
2022-09-10T09:40:07.244Z,18.50
2022-09-10T09:42:42.730Z,18.90
2022-09-10T09:45:16.312Z,19.20
2022-09-10T09:47:46.285Z,19.40
2022-09-10T09:50:13.698Z,19.80
2022-09-10T09:52:43.185Z,20.20
2022-09-10T09:55:36.073Z,20.60
2022-09-10T09:58:40.352Z,20.60
2022-09-10T10:01:10.924Z,20.70
2022-09-10T10:03:52.582Z,20.80
2022-09-10T10:06:24.111Z,21.10
2022-09-10T10:09:07.296Z,21.50
2022-09-10T10:11:48.372Z,21.50
2022-09-10T10:14:21.221Z,21.70
2022-09-10T10:16:49.348Z,21.60
2022-09-10T10:19:35.849Z,21.60
2022-09-10T10:22:15.216Z,21.70
2022-09-10T10:24:43.386Z,21.90
2022-09-10T10:27:51.390Z,22.20
2022-09-10T10:30:18.335Z,22.30
2022-09-10T10:32:51.612Z,22.10
2022-09-10T10:35:53.872Z,21.70
2022-09-10T10:38:31.597Z,21.60
2022-09-10T10:41:08.258Z,22.20
2022-09-10T10:43:55.924Z,22.40
2022-09-10T10:46:40.467Z,21.90
2022-09-10T10:49:33.538Z,21.90
2022-09-10T10:52:14.095Z,21.90
2022-09-10T10:54:43.746Z,22.20
2022-09-10T10:57:35.169Z,22.10
2022-09-10T11:00:18.680Z,22.30
2022-09-10T11:03:03.675Z,22.60
2022-09-10T11:05:38.628Z,23.20
2022-09-10T11:08:12.350Z,23.70
2022-09-10T11:11:13.480Z,23.60
2022-09-10T11:13:51.197Z,23.10
2022-09-10T11:16:28.865Z,22.90
2022-09-10T11:19:31.355Z,22.70
2022-09-10T11:22:04.373Z,22.90
2022-09-10T11:25:00.342Z,23.10
2022-09-10T11:27:41.922Z,23.60
2022-09-10T11:30:17.152Z,23.80
2022-09-10T11:32:49.276Z,24.20
2022-09-10T11:35:29.303Z,23.80
2022-09-10T11:38:01.953Z,23.60
2022-09-10T11:41:06.342Z,23.90
2022-09-10T11:43:47.427Z,23.40
2022-09-10T11:46:23.461Z,23.00
2022-09-10T11:48:54.952Z,22.80
2022-09-10T11:51:34.211Z,22.50
2022-09-10T11:54:03.064Z,22.00
2022-09-10T11:56:50.988Z,21.90
2022-09-10T11:59:36.775Z,22.30
2022-09-10T12:02:18.964Z,22.60
2022-09-10T12:05:12.012Z,22.90
2022-09-10T12:07:57.834Z,23.20
2022-09-10T12:10:55.155Z,23.40
2022-09-10T12:13:22.597Z,23.60
2022-09-10T12:15:57.446Z,24.30
2022-09-10T12:18:37.810Z,24.90
2022-09-10T12:21:14.909Z,25.20
2022-09-10T12:23:44.173Z,25.00
2022-09-10T12:26:19.869Z,24.90
2022-09-10T12:28:49.714Z,25.00
2022-09-10T12:31:18.806Z,25.40
2022-09-10T12:33:45.740Z,25.60
2022-09-10T12:36:33.197Z,25.50
2022-09-10T12:39:21.647Z,25.60
2022-09-10T12:41:49.676Z,25.70
2022-09-10T12:44:35.132Z,25.70
2022-09-10T12:47:17.258Z,26.10
2022-09-10T12:50:03.405Z,26.70
2022-09-10T12:53:17.050Z,27.10
2022-09-10T12:56:00.277Z,27.10
2022-09-10T12:58:27.180Z,26.60
2022-09-10T13:00:58.219Z,25.80
2022-09-10T13:03:28.750Z,25.10
2022-09-10T13:06:01.950Z,24.40
2022-09-10T13:08:35.655Z,24.10
2022-09-10T13:11:25.121Z,23.90
2022-09-10T13:14:03.049Z,23.60
2022-09-10T13:16:29.907Z,23.30
2022-09-10T13:19:18.625Z,22.90
2022-09-10T13:21:45.497Z,22.60
2022-09-10T13:24:36.304Z,22.90
2022-09-10T13:27:22.941Z,23.00
2022-09-10T13:30:11.286Z,23.40
2022-09-10T13:32:43.911Z,23.90
2022-09-10T13:35:22.590Z,24.50
2022-09-10T13:38:05.004Z,25.00
2022-09-10T13:41:10.431Z,25.40
2022-09-10T13:43:52.714Z,25.50
2022-09-10T13:46:41.726Z,25.90
2022-09-10T13:49:30.120Z,26.00
2022-09-10T13:52:01.599Z,25.90
2022-09-10T13:54:35.121Z,25.50
2022-09-10T13:57:13.257Z,25.20
2022-09-10T13:59:42.324Z,24.70
2022-09-10T14:02:09.255Z,24.40
2022-09-10T14:04:41.953Z,24.10
2022-09-10T14:07:21.168Z,23.90
2022-09-10T14:09:56.831Z,23.80
2022-09-10T14:12:26.987Z,23.50
2022-09-10T14:14:59.169Z,23.40
2022-09-10T14:17:43.160Z,23.20
2022-09-10T14:20:29.547Z,23.10
2022-09-10T14:23:05.848Z,22.90
2022-09-10T14:25:35.805Z,22.30
2022-09-10T14:28:15.843Z,21.80
2022-09-10T14:30:44.691Z,21.50
2022-09-10T14:33:34.980Z,21.20
2022-09-10T14:36:34.424Z,21.10
2022-09-10T14:39:17.989Z,21.00
2022-09-10T14:41:46.072Z,20.90
2022-09-10T14:44:23.952Z,20.90
2022-09-10T14:46:52.504Z,20.70
2022-09-10T14:49:31.745Z,20.60
2022-09-10T14:51:59.946Z,20.70
2022-09-10T14:54:31.034Z,20.70
2022-09-10T14:57:01.504Z,20.70
2022-09-10T14:59:38.626Z,20.50
2022-09-10T15:02:25.506Z,20.40
2022-09-10T15:04:52.804Z,20.40
2022-09-10T15:07:20.030Z,20.30
2022-09-10T15:09:47.029Z,20.20
2022-09-10T15:12:20.109Z,20.00
2022-09-10T15:14:47.003Z,19.90
2022-09-10T15:17:15.388Z,19.90
2022-09-10T15:19:42.264Z,19.90
2022-09-10T15:22:23.428Z,19.80
2022-09-10T15:25:10.037Z,19.60
2022-09-10T15:27:37.715Z,19.60
2022-09-10T15:30:05.453Z,19.60
2022-09-10T15:32:32.443Z,19.60
2022-09-10T15:34:59.431Z,19.50
2022-09-10T15:37:27.136Z,19.30
2022-09-10T15:39:54.723Z,19.20
2022-09-10T15:42:21.733Z,19.30
2022-09-10T15:44:48.677Z,19.60
2022-09-10T15:47:15.623Z,19.70
2022-09-10T15:49:42.525Z,19.70
2022-09-10T15:52:10.743Z,19.50
2022-09-10T15:54:37.752Z,19.60
2022-09-10T15:57:04.766Z,19.40
2022-09-10T15:59:31.649Z,19.40
2022-09-10T16:01:58.599Z,19.30
2022-09-10T16:04:25.694Z,19.30
2022-09-10T16:06:52.659Z,19.30
2022-09-10T16:09:19.555Z,19.40
2022-09-10T16:11:46.680Z,19.50
2022-09-10T16:14:16.799Z,19.60
2022-09-10T16:16:43.691Z,19.80
2022-09-10T16:19:12.941Z,19.70
2022-09-10T16:21:39.873Z,19.60
2022-09-10T16:24:07.504Z,19.50
2022-09-10T16:26:37.697Z,19.40
2022-09-10T16:29:14.083Z,19.50
2022-09-10T16:31:41.937Z,19.50
2022-09-10T16:34:12.555Z,19.50
2022-09-10T16:36:39.912Z,19.60
2022-09-10T16:39:12.479Z,19.60
2022-09-10T16:41:40.978Z,19.50
2022-09-10T16:44:08.995Z,19.30
2022-09-10T16:46:35.929Z,19.10
2022-09-10T16:49:02.967Z,19.00
2022-09-10T16:51:29.906Z,18.70
2022-09-10T16:54:02.444Z,18.60
2022-09-10T16:56:59.320Z,18.40
2022-09-10T16:59:26.271Z,18.20
2022-09-10T17:01:53.965Z,18.00
2022-09-10T17:04:27.794Z,18.00
2022-09-10T17:06:56.414Z,17.90
2022-09-10T17:09:24.981Z,17.90
2022-09-10T17:11:53.349Z,17.90
2022-09-10T17:14:20.318Z,17.80
2022-09-10T17:16:48.478Z,17.80
2022-09-10T17:19:18.529Z,17.80
2022-09-10T17:21:51.029Z,17.70
2022-09-10T17:24:20.914Z,17.70
2022-09-10T17:26:47.918Z,17.60
2022-09-10T17:29:16.795Z,17.60
2022-09-10T17:31:46.638Z,17.50
2022-09-10T17:34:15.478Z,17.40
2022-09-10T17:36:47.064Z,17.20
2022-09-10T17:39:14.982Z,17.10
2022-09-10T17:41:43.055Z,16.90
2022-09-10T17:44:11.339Z,16.90
2022-09-10T17:46:38.756Z,16.80
2022-09-10T17:49:05.750Z,16.90
2022-09-10T17:51:34.552Z,16.80
2022-09-10T17:54:04.740Z,16.80
2022-09-10T17:56:32.088Z,16.70
2022-09-10T17:59:01.872Z,16.70
2022-09-10T18:01:32.574Z,16.70
2022-09-10T18:04:00.151Z,16.70
2022-09-10T18:06:29.223Z,16.60
2022-09-10T18:09:03.597Z,16.50
2022-09-10T18:11:32.798Z,16.40
2022-09-10T18:14:00.301Z,16.30
2022-09-10T18:16:30.055Z,16.20
2022-09-10T18:19:03.100Z,16.20
2022-09-10T18:21:32.731Z,16.00
2022-09-10T18:24:05.386Z,15.90
2022-09-10T18:26:38.332Z,15.80
2022-09-10T18:29:14.328Z,15.80
2022-09-10T18:31:44.054Z,15.60
2022-09-10T18:34:20.811Z,15.50
2022-09-10T18:36:53.543Z,15.40
2022-09-10T18:39:21.420Z,15.40
2022-09-10T18:41:48.511Z,15.30
2022-09-10T18:44:27.571Z,15.30
2022-09-10T18:46:54.681Z,15.10
2022-09-10T18:49:24.395Z,15.10
2022-09-10T18:51:52.727Z,15.10
2022-09-10T18:54:21.033Z,15.00
2022-09-10T18:56:49.299Z,14.90
2022-09-10T18:59:20.897Z,14.80
2022-09-10T19:01:48.970Z,14.60
2022-09-10T19:04:22.001Z,14.50
2022-09-10T19:06:49.968Z,14.50
2022-09-10T19:09:22.932Z,14.50
2022-09-10T19:11:51.372Z,14.40
2022-09-10T19:14:32.321Z,14.30
2022-09-10T19:17:00.539Z,14.30
2022-09-10T19:19:30.508Z,14.10
2022-09-10T19:22:06.279Z,14.20
2022-09-10T19:27:21.905Z,14.20
2022-09-10T19:29:49.950Z,14.10
2022-09-10T19:32:17.364Z,14.00
2022-09-10T19:34:44.705Z,14.00
2022-09-10T19:37:11.679Z,14.00
2022-09-10T19:39:38.634Z,13.90
2022-09-10T19:42:06.814Z,13.80
2022-09-10T19:44:34.103Z,13.90
2022-09-10T19:47:04.103Z,13.80
2022-09-10T19:49:31.373Z,13.80
2022-09-10T19:51:58.242Z,13.80
2022-09-10T19:54:25.800Z,13.70
2022-09-10T19:56:52.783Z,13.70
2022-09-10T19:59:19.687Z,13.50
2022-09-10T20:01:46.942Z,13.50
2022-09-10T20:04:14.413Z,13.50
2022-09-10T20:06:42.856Z,13.50
2022-09-10T20:09:10.305Z,13.40
2022-09-10T20:11:37.965Z,13.50
2022-09-10T20:14:12.979Z,13.40
2022-09-10T20:16:42.947Z,13.40
2022-09-10T20:19:11.774Z,13.30
2022-09-10T20:21:38.726Z,13.20
2022-09-10T20:24:08.925Z,13.20
2022-09-10T20:26:44.086Z,13.20
2022-09-10T20:29:23.123Z,13.10
2022-09-10T20:31:50.178Z,13.10
2022-09-10T20:34:20.254Z,13.10
2022-09-10T20:36:51.237Z,13.10
2022-09-10T20:39:21.236Z,13.10
2022-09-10T20:41:48.324Z,13.10
2022-09-10T20:44:17.399Z,13.10
2022-09-10T20:46:44.694Z,13.00
2022-09-10T20:49:13.013Z,12.90
2022-09-10T20:51:41.133Z,12.80
2022-09-10T20:54:11.958Z,12.80
2022-09-10T20:56:39.275Z,12.70
2022-09-10T20:59:06.178Z,12.70
2022-09-10T21:01:33.243Z,12.70
2022-09-10T21:04:01.413Z,12.60
2022-09-10T21:06:31.301Z,12.50
2022-09-10T21:08:59.187Z,12.50
2022-09-10T21:11:28.854Z,12.50
2022-09-10T21:13:58.292Z,12.50
2022-09-10T21:16:28.209Z,12.50
2022-09-10T21:18:57.546Z,12.60
2022-09-10T21:21:26.978Z,12.70
2022-09-10T21:24:05.871Z,12.70
2022-09-10T21:26:35.426Z,12.70
2022-09-10T21:29:05.314Z,12.70
2022-09-10T21:31:32.626Z,12.50
2022-09-10T21:34:03.400Z,12.30
2022-09-10T21:36:31.525Z,12.20
2022-09-10T21:39:00.835Z,12.10
2022-09-10T21:41:33.225Z,12.10
2022-09-10T21:44:01.683Z,12.10
2022-09-10T21:46:29.688Z,12.00
2022-09-10T21:48:57.025Z,12.00
2022-09-10T21:51:24.397Z,12.10
2022-09-10T21:53:55.803Z,12.10
2022-09-10T21:56:24.914Z,12.10
2022-09-10T21:58:53.728Z,12.10
2022-09-10T22:01:23.546Z,12.10
2022-09-10T22:03:54.803Z,12.20
2022-09-10T22:06:24.405Z,12.20
2022-09-10T22:08:59.664Z,12.20
2022-09-10T22:11:38.104Z,12.20
2022-09-10T22:14:07.468Z,12.20
2022-09-10T22:16:35.930Z,12.20
2022-09-10T22:19:06.405Z,12.20
2022-09-10T22:21:34.128Z,12.20
2022-09-10T22:24:01.067Z,12.10
2022-09-10T22:26:28.435Z,12.20
2022-09-10T22:28:58.191Z,12.00
2022-09-10T22:31:28.545Z,11.90
2022-09-10T22:33:57.972Z,11.90
2022-09-10T22:36:31.642Z,11.90
2022-09-10T22:39:05.069Z,11.90
2022-09-10T22:41:34.417Z,11.90
2022-09-10T22:44:02.272Z,11.80
2022-09-10T22:46:29.888Z,11.80
2022-09-10T22:48:57.263Z,11.80
2022-09-10T22:51:27.709Z,11.80
2022-09-10T22:53:55.786Z,11.80
2022-09-10T22:56:26.227Z,11.80
2022-09-10T22:58:55.632Z,11.80
2022-09-10T23:01:25.849Z,11.70
2022-09-10T23:03:53.068Z,11.70
2022-09-10T23:06:24.511Z,11.70
2022-09-10T23:08:53.538Z,11.70
2022-09-10T23:11:22.955Z,11.60
2022-09-10T23:14:13.080Z,11.60
2022-09-10T23:16:42.434Z,11.50
2022-09-10T23:19:15.382Z,11.50
2022-09-10T23:21:45.659Z,11.50
2022-09-10T23:24:15.842Z,11.40
2022-09-10T23:26:44.104Z,11.30
2022-09-10T23:29:11.656Z,11.10
2022-09-10T23:31:39.765Z,11.10
2022-09-10T23:34:17.797Z,11.00
2022-09-10T23:36:46.859Z,10.90
2022-09-10T23:39:17.023Z,11.00
2022-09-10T23:41:44.129Z,11.10
2022-09-10T23:44:11.034Z,11.20
2022-09-10T23:46:38.184Z,11.20
2022-09-10T23:49:05.947Z,11.20
2022-09-10T23:51:33.361Z,11.10
2022-09-10T23:54:00.359Z,11.00
2022-09-10T23:56:28.710Z,11.00
2022-09-10T23:58:56.718Z,11.00
